sensor_id;sensor_type;location;lat;lon;timestamp;pressure;altitude;pressure_sealevel;temperature;humidity
54407;BME280;40313;50.308;30.374;2023-02-13T00:00:43;100976.03;;;-5.71;100.00
54407;BME280;40313;50.308;30.374;2023-02-13T00:03:09;100975.72;;;-5.81;100.00
54407;BME280;40313;50.308;30.374;2023-02-13T00:05:39;100972.97;;;-5.87;100.00
54407;BME280;40313;50.308;30.374;2023-02-13T00:08:06;100968.47;;;-5.96;100.00
54407;BME280;40313;50.308;30.374;2023-02-13T00:10:32;100973.47;;;-5.99;100.00
54407;BME280;40313;50.308;30.374;2023-02-13T00:12:59;100975.84;;;-6.03;100.00
54407;BME280;40313;50.308;30.374;2023-02-13T00:15:25;100968.91;;;-6.09;100.00
54407;BME280;40313;50.308;30.374;2023-02-13T00:17:52;100962.03;;;-6.12;100.00
54407;BME280;40313;50.308;30.374;2023-02-13T00:20:18;100948.25;;;-6.20;100.00
54407;BME280;40313;50.308;30.374;2023-02-13T00:22:46;100946.31;;;-6.27;100.00
54407;BME280;40313;50.308;30.374;2023-02-13T00:25:13;100943.53;;;-6.33;100.00
54407;BME280;40313;50.308;30.374;2023-02-13T00:27:39;100951.91;;;-6.36;100.00
54407;BME280;40313;50.308;30.374;2023-02-13T00:30:07;100942.56;;;-6.38;100.00
54407;BME280;40313;50.308;30.374;2023-02-13T00:32:33;100947.53;;;-6.41;100.00
54407;BME280;40313;50.308;30.374;2023-02-13T00:35:00;100948.06;;;-6.50;100.00
54407;BME280;40313;50.308;30.374;2023-02-13T00:37:26;100949.63;;;-6.54;100.00
54407;BME280;40313;50.308;30.374;2023-02-13T00:39:54;100944.66;;;-6.51;100.00
54407;BME280;40313;50.308;30.374;2023-02-13T00:42:22;100932.88;;;-6.49;100.00
54407;BME280;40313;50.308;30.374;2023-02-13T00:44:50;100934.00;;;-6.40;100.00
54407;BME280;40313;50.308;30.374;2023-02-13T00:47:17;100929.03;;;-6.37;100.00
54407;BME280;40313;50.308;30.374;2023-02-13T00:49:44;100924.91;;;-6.34;100.00
54407;BME280;40313;50.308;30.374;2023-02-13T00:52:11;100933.44;;;-6.32;100.00
54407;BME280;40313;50.308;30.374;2023-02-13T00:54:37;100926.91;;;-6.25;100.00
54407;BME280;40313;50.308;30.374;2023-02-13T00:57:05;100927.03;;;-6.20;100.00
54407;BME280;40313;50.308;30.374;2023-02-13T00:59:32;100933.94;;;-6.16;100.00
54407;BME280;40313;50.308;30.374;2023-02-13T01:01:58;100925.63;;;-6.12;100.00
54407;BME280;40313;50.308;30.374;2023-02-13T01:04:25;100924.97;;;-6.06;100.00
54407;BME280;40313;50.308;30.374;2023-02-13T01:06:51;100918.19;;;-6.06;100.00
54407;BME280;40313;50.308;30.374;2023-02-13T01:09:18;100921.69;;;-6.02;100.00
54407;BME280;40313;50.308;30.374;2023-02-13T01:11:44;100920.06;;;-6.00;100.00
54407;BME280;40313;50.308;30.374;2023-02-13T01:14:12;100910.78;;;-6.00;100.00
54407;BME280;40313;50.308;30.374;2023-02-13T01:16:39;100911.69;;;-5.98;100.00
54407;BME280;40313;50.308;30.374;2023-02-13T01:19:05;100912.63;;;-5.94;100.00
54407;BME280;40313;50.308;30.374;2023-02-13T01:21:32;100917.78;;;-5.91;100.00
54407;BME280;40313;50.308;30.374;2023-02-13T01:24:02;100906.03;;;-5.87;100.00
54407;BME280;40313;50.308;30.374;2023-02-13T01:26:28;100909.50;;;-5.85;100.00
54407;BME280;40313;50.308;30.374;2023-02-13T01:28:55;100905.34;;;-5.82;100.00
54407;BME280;40313;50.308;30.374;2023-02-13T01:31:23;100912.13;;;-5.82;100.00
54407;BME280;40313;50.308;30.374;2023-02-13T01:33:50;100905.41;;;-5.80;100.00
54407;BME280;40313;50.308;30.374;2023-02-13T01:36:17;100906.19;;;-5.83;100.00
54407;BME280;40313;50.308;30.374;2023-02-13T01:38:43;100904.50;;;-5.82;100.00
54407;BME280;40313;50.308;30.374;2023-02-13T01:41:10;100902.81;;;-5.82;100.00
54407;BME280;40313;50.308;30.374;2023-02-13T01:43:45;100883.31;;;-5.83;100.00
54407;BME280;40313;50.308;30.374;2023-02-13T01:46:15;100887.53;;;-5.83;100.00
54407;BME280;40313;50.308;30.374;2023-02-13T01:48:44;100881.53;;;-5.85;100.00
54407;BME280;40313;50.308;30.374;2023-02-13T01:51:14;100886.50;;;-5.90;100.00
54407;BME280;40313;50.308;30.374;2023-02-13T01:53:46;100889.03;;;-5.90;100.00
54407;BME280;40313;50.308;30.374;2023-02-13T01:56:17;100890.81;;;-5.86;100.00
54407;BME280;40313;50.308;30.374;2023-02-13T01:58:48;100885.88;;;-5.83;100.00
54407;BME280;40313;50.308;30.374;2023-02-13T02:01:17;100888.50;;;-5.80;100.00
54407;BME280;40313;50.308;30.374;2023-02-13T02:03:48;100877.44;;;-5.80;100.00
54407;BME280;40313;50.308;30.374;2023-02-13T02:06:23;100879.94;;;-5.82;100.00
54407;BME280;40313;50.308;30.374;2023-02-13T02:08:52;100880.88;;;-5.80;100.00
54407;BME280;40313;50.308;30.374;2023-02-13T02:11:24;100871.69;;;-5.75;100.00
54407;BME280;40313;50.308;30.374;2023-02-13T02:13:53;100876.88;;;-5.71;100.00
54407;BME280;40313;50.308;30.374;2023-02-13T02:16:19;100875.25;;;-5.69;100.00
54407;BME280;40313;50.308;30.374;2023-02-13T02:18:47;100864.22;;;-5.70;100.00
54407;BME280;40313;50.308;30.374;2023-02-13T02:21:54;100865.06;;;-5.69;100.00
54407;BME280;40313;50.308;30.374;2023-02-13T02:27:43;100860.00;;;-5.69;100.00
54407;BME280;40313;50.308;30.374;2023-02-13T02:33:28;100852.38;;;-5.69;100.00
54407;BME280;40313;50.308;30.374;2023-02-13T02:36:07;100846.56;;;-5.65;100.00
54407;BME280;40313;50.308;30.374;2023-02-13T02:38:47;100852.63;;;-5.60;100.00
54407;BME280;40313;50.308;30.374;2023-02-13T02:41:23;100852.63;;;-5.60;100.00
54407;BME280;40313;50.308;30.374;2023-02-13T02:44:30;100847.38;;;-5.66;100.00
54407;BME280;40313;50.308;30.374;2023-02-13T02:47:04;100860.88;;;-5.67;100.00
54407;BME280;40313;50.308;30.374;2023-02-13T02:49:59;100857.44;;;-5.69;100.00
54407;BME280;40313;50.308;30.374;2023-02-13T02:52:38;100850.69;;;-5.69;100.00
54407;BME280;40313;50.308;30.374;2023-02-13T02:55:16;100855.00;;;-5.66;100.00
54407;BME280;40313;50.308;30.374;2023-02-13T02:57:48;100855.28;;;-5.57;100.00
54407;BME280;40313;50.308;30.374;2023-02-13T03:00:34;100857.25;;;-5.47;100.00
54407;BME280;40313;50.308;30.374;2023-02-13T03:03:22;100862.50;;;-5.41;100.00
54407;BME280;40313;50.308;30.374;2023-02-13T03:06:12;100859.31;;;-5.33;100.00
54407;BME280;40313;50.308;30.374;2023-02-13T03:08:43;100855.19;;;-5.30;100.00
54407;BME280;40313;50.308;30.374;2023-02-13T03:11:28;100857.81;;;-5.27;100.00
54407;BME280;40313;50.308;30.374;2023-02-13T03:14:14;100847.69;;;-5.25;100.00
54407;BME280;40313;50.308;30.374;2023-02-13T03:16:42;100850.25;;;-5.24;100.00
54407;BME280;40313;50.308;30.374;2023-02-13T03:19:29;100840.91;;;-5.25;100.00
54407;BME280;40313;50.308;30.374;2023-02-13T03:22:20;100848.38;;;-5.31;100.00
54407;BME280;40313;50.308;30.374;2023-02-13T03:24:52;100839.75;;;-5.36;100.00
54407;BME280;40313;50.308;30.374;2023-02-13T03:27:26;100839.63;;;-5.41;100.00
54407;BME280;40313;50.308;30.374;2023-02-13T03:30:17;100840.34;;;-5.45;100.00
54407;BME280;40313;50.308;30.374;2023-02-13T03:32:46;100835.19;;;-5.48;100.00
54407;BME280;40313;50.308;30.374;2023-02-13T03:35:21;100826.66;;;-5.50;100.00
54407;BME280;40313;50.308;30.374;2023-02-13T03:38:09;100831.72;;;-5.51;100.00
54407;BME280;40313;50.308;30.374;2023-02-13T03:40:41;100821.44;;;-5.55;100.00
54407;BME280;40313;50.308;30.374;2023-02-13T03:43:31;100824.91;;;-5.52;100.00
54407;BME280;40313;50.308;30.374;2023-02-13T03:46:01;100813.09;;;-5.49;100.00
54407;BME280;40313;50.308;30.374;2023-02-13T03:48:28;100814.13;;;-5.44;100.00
54407;BME280;40313;50.308;30.374;2023-02-13T03:51:14;100811.72;;;-5.38;100.00
54407;BME280;40313;50.308;30.374;2023-02-13T03:53:44;100805.88;;;-5.35;100.00
54407;BME280;40313;50.308;30.374;2023-02-13T03:56:12;100805.13;;;-5.31;100.00
54407;BME280;40313;50.308;30.374;2023-02-13T03:58:57;100794.22;;;-5.27;100.00
54407;BME280;40313;50.308;30.374;2023-02-13T04:01:41;100797.00;;;-5.17;100.00
54407;BME280;40313;50.308;30.374;2023-02-13T04:04:10;100802.38;;;-5.07;100.00
54407;BME280;40313;50.308;30.374;2023-02-13T04:06:41;100799.19;;;-4.99;100.00
54407;BME280;40313;50.308;30.374;2023-02-13T04:09:12;100798.59;;;-4.89;100.00
54407;BME280;40313;50.308;30.374;2023-02-13T04:11:40;100805.66;;;-4.77;100.00
54407;BME280;40313;50.308;30.374;2023-02-13T04:14:09;100797.44;;;-4.67;100.00
54407;BME280;40313;50.308;30.374;2023-02-13T04:16:39;100785.81;;;-4.57;100.00
54407;BME280;40313;50.308;30.374;2023-02-13T04:19:07;100782.56;;;-4.50;100.00
54407;BME280;40313;50.308;30.374;2023-02-13T04:21:37;100788.75;;;-4.39;100.00
54407;BME280;40313;50.308;30.374;2023-02-13T04:24:05;100780.34;;;-4.35;100.00
54407;BME280;40313;50.308;30.374;2023-02-13T04:26:36;100777.13;;;-4.27;100.00
54407;BME280;40313;50.308;30.374;2023-02-13T04:29:03;100781.53;;;-4.20;100.00
54407;BME280;40313;50.308;30.374;2023-02-13T04:31:30;100775.72;;;-4.14;100.00
54407;BME280;40313;50.308;30.374;2023-02-13T04:33:57;100773.31;;;-4.08;100.00
54407;BME280;40313;50.308;30.374;2023-02-13T04:36:23;100771.75;;;-4.02;100.00
54407;BME280;40313;50.308;30.374;2023-02-13T04:38:50;100769.31;;;-3.97;100.00
54407;BME280;40313;50.308;30.374;2023-02-13T04:41:16;100768.59;;;-3.91;100.00
54407;BME280;40313;50.308;30.374;2023-02-13T04:43:44;100766.97;;;-3.86;100.00
54407;BME280;40313;50.308;30.374;2023-02-13T04:46:11;100766.22;;;-3.82;100.00
54407;BME280;40313;50.308;30.374;2023-02-13T04:48:37;100758.63;;;-3.79;100.00
54407;BME280;40313;50.308;30.374;2023-02-13T04:51:04;100759.53;;;-3.77;100.00
54407;BME280;40313;50.308;30.374;2023-02-13T04:53:31;100767.22;;;-3.74;100.00
54407;BME280;40313;50.308;30.374;2023-02-13T04:55:57;100772.41;;;-3.69;100.00
54407;BME280;40313;50.308;30.374;2023-02-13T04:58:24;100769.16;;;-3.62;100.00
54407;BME280;40313;50.308;30.374;2023-02-13T05:00:52;100757.34;;;-3.58;100.00
54407;BME280;40313;50.308;30.374;2023-02-13T05:03:18;100769.25;;;-3.57;100.00
54407;BME280;40313;50.308;30.374;2023-02-13T05:05:45;100766.81;;;-3.53;100.00
54407;BME280;40313;50.308;30.374;2023-02-13T05:08:11;100756.63;;;-3.51;100.00
54407;BME280;40313;50.308;30.374;2023-02-13T05:10:38;100762.63;;;-3.48;100.00
54407;BME280;40313;50.308;30.374;2023-02-13T05:13:05;100761.84;;;-3.45;100.00
54407;BME280;40313;50.308;30.374;2023-02-13T05:15:31;100763.63;;;-3.41;100.00
54407;BME280;40313;50.308;30.374;2023-02-13T05:17:59;100757.75;;;-3.37;100.00
54407;BME280;40313;50.308;30.374;2023-02-13T05:20:26;100762.91;;;-3.34;100.00
54407;BME280;40313;50.308;30.374;2023-02-13T05:22:53;100764.66;;;-3.31;100.00
54407;BME280;40313;50.308;30.374;2023-02-13T05:25:35;100765.50;;;-3.31;100.00
54407;BME280;40313;50.308;30.374;2023-02-13T05:28:02;100758.81;;;-3.25;100.00
54407;BME280;40313;50.308;30.374;2023-02-13T05:30:29;100759.69;;;-3.22;100.00
54407;BME280;40313;50.308;30.374;2023-02-13T05:32:55;100766.56;;;-3.19;100.00
54407;BME280;40313;50.308;30.374;2023-02-13T05:35:23;100763.22;;;-3.15;100.00
54407;BME280;40313;50.308;30.374;2023-02-13T05:37:50;100772.66;;;-3.11;100.00
54407;BME280;40313;50.308;30.374;2023-02-13T05:40:16;100764.25;;;-3.07;100.00
54407;BME280;40313;50.308;30.374;2023-02-13T05:42:43;100763.47;;;-3.03;100.00
54407;BME280;40313;50.308;30.374;2023-02-13T05:45:09;100773.72;;;-3.00;100.00
54407;BME280;40313;50.308;30.374;2023-02-13T05:47:36;100768.69;;;-2.95;100.00
54407;BME280;40313;50.308;30.374;2023-02-13T05:50:03;100781.47;;;-2.93;100.00
54407;BME280;40313;50.308;30.374;2023-02-13T05:52:31;100776.41;;;-2.90;100.00
54407;BME280;40313;50.308;30.374;2023-02-13T05:54:57;100781.56;;;-2.87;100.00
54407;BME280;40313;50.308;30.374;2023-02-13T05:57:24;100780.84;;;-2.80;100.00
54407;BME280;40313;50.308;30.374;2023-02-13T05:59:50;100774.13;;;-2.75;100.00
54407;BME280;40313;50.308;30.374;2023-02-13T06:02:17;100778.50;;;-2.68;100.00
54407;BME280;40313;50.308;30.374;2023-02-13T06:04:43;100764.94;;;-2.64;100.00
54407;BME280;40313;50.308;30.374;2023-02-13T06:07:10;100762.47;;;-2.57;100.00
54407;BME280;40313;50.308;30.374;2023-02-13T06:09:37;100751.47;;;-2.53;100.00
54407;BME280;40313;50.308;30.374;2023-02-13T06:12:04;100741.38;;;-2.47;100.00
54407;BME280;40313;50.308;30.374;2023-02-13T06:14:31;100744.81;;;-2.42;100.00
54407;BME280;40313;50.308;30.374;2023-02-13T06:16:59;100743.16;;;-2.40;100.00
54407;BME280;40313;50.308;30.374;2023-02-13T06:19:26;100742.34;;;-2.36;100.00
54407;BME280;40313;50.308;30.374;2023-02-13T06:21:52;100743.31;;;-2.28;100.00
54407;BME280;40313;50.308;30.374;2023-02-13T06:24:19;100738.31;;;-2.21;100.00
54407;BME280;40313;50.308;30.374;2023-02-13T06:26:46;100743.50;;;-2.15;100.00
54407;BME280;40313;50.308;30.374;2023-02-13T06:29:13;100735.88;;;-2.12;100.00
54407;BME280;40313;50.308;30.374;2023-02-13T06:31:39;100729.19;;;-2.02;100.00
54407;BME280;40313;50.308;30.374;2023-02-13T06:34:06;100721.59;;;-1.95;100.00
54407;BME280;40313;50.308;30.374;2023-02-13T06:36:33;100713.13;;;-1.89;100.00
54407;BME280;40313;50.308;30.374;2023-02-13T06:39:02;100713.16;;;-1.87;100.00
54407;BME280;40313;50.308;30.374;2023-02-13T06:41:28;100710.59;;;-1.87;100.00
54407;BME280;40313;50.308;30.374;2023-02-13T06:43:56;100725.16;;;-1.83;100.00
54407;BME280;40313;50.308;30.374;2023-02-13T06:46:22;100709.88;;;-1.77;100.00
54407;BME280;40313;50.308;30.374;2023-02-13T06:48:49;100712.47;;;-1.76;100.00
54407;BME280;40313;50.308;30.374;2023-02-13T06:51:15;100716.63;;;-1.82;100.00
54407;BME280;40313;50.308;30.374;2023-02-13T06:53:42;100719.13;;;-1.90;100.00
54407;BME280;40313;50.308;30.374;2023-02-13T06:56:09;100709.63;;;-1.97;100.00
54407;BME280;40313;50.308;30.374;2023-02-13T06:58:35;100715.63;;;-1.97;100.00
54407;BME280;40313;50.308;30.374;2023-02-13T07:01:04;100724.88;;;-2.05;100.00
54407;BME280;40313;50.308;30.374;2023-02-13T07:03:31;100723.94;;;-2.12;100.00
54407;BME280;40313;50.308;30.374;2023-02-13T07:05:57;100718.84;;;-2.10;100.00
54407;BME280;40313;50.308;30.374;2023-02-13T07:08:24;100716.28;;;-2.10;100.00
54407;BME280;40313;50.308;30.374;2023-02-13T07:10:50;100711.31;;;-2.01;100.00
54407;BME280;40313;50.308;30.374;2023-02-13T07:13:17;100704.63;;;-1.89;100.00
54407;BME280;40313;50.308;30.374;2023-02-13T07:15:43;100709.78;;;-1.83;100.00
54407;BME280;40313;50.308;30.374;2023-02-13T07:18:11;100704.69;;;-1.82;100.00
54407;BME280;40313;50.308;30.374;2023-02-13T07:20:37;100700.41;;;-1.84;100.00
54407;BME280;40313;50.308;30.374;2023-02-13T07:23:04;100694.41;;;-1.88;100.00
54407;BME280;40313;50.308;30.374;2023-02-13T07:25:31;100686.72;;;-1.88;100.00
54407;BME280;40313;50.308;30.374;2023-02-13T07:28:00;100688.50;;;-1.82;100.00
54407;BME280;40313;50.308;30.374;2023-02-13T07:30:28;100684.22;;;-1.83;100.00
54407;BME280;40313;50.308;30.374;2023-02-13T07:32:57;100678.34;;;-1.76;100.00
54407;BME280;40313;50.308;30.374;2023-02-13T07:35:25;100682.63;;;-1.72;100.00
54407;BME280;40313;50.308;30.374;2023-02-13T07:37:52;100675.84;;;-1.70;100.00
54407;BME280;40313;50.308;30.374;2023-02-13T07:40:19;100675.13;;;-1.57;100.00
54407;BME280;40313;50.308;30.374;2023-02-13T07:42:46;100670.97;;;-1.45;100.00
54407;BME280;40313;50.308;30.374;2023-02-13T07:45:12;100665.97;;;-1.33;100.00
54407;BME280;40313;50.308;30.374;2023-02-13T07:47:40;100666.88;;;-1.25;100.00
54407;BME280;40313;50.308;30.374;2023-02-13T07:50:07;100673.84;;;-1.11;100.00
54407;BME280;40313;50.308;30.374;2023-02-13T07:52:35;100669.59;;;-1.06;100.00
54407;BME280;40313;50.308;30.374;2023-02-13T07:55:02;100671.31;;;-1.05;100.00
54407;BME280;40313;50.308;30.374;2023-02-13T07:57:28;100674.78;;;-1.00;100.00
54407;BME280;40313;50.308;30.374;2023-02-13T07:59:55;100670.50;;;-1.01;100.00
54407;BME280;40313;50.308;30.374;2023-02-13T08:02:22;100671.38;;;-0.96;100.00
54407;BME280;40313;50.308;30.374;2023-02-13T08:04:49;100673.16;;;-0.89;100.00
54407;BME280;40313;50.308;30.374;2023-02-13T08:07:16;100671.59;;;-0.68;100.00
54407;BME280;40313;50.308;30.374;2023-02-13T08:09:44;100670.84;;;-0.50;100.00
54407;BME280;40313;50.308;30.374;2023-02-13T08:12:37;100683.81;;;-0.21;100.00
54407;BME280;40313;50.308;30.374;2023-02-13T08:15:04;100669.31;;;-0.11;100.00
54407;BME280;40313;50.308;30.374;2023-02-13T08:17:31;100667.66;;;0.10;100.00
54407;BME280;40313;50.308;30.374;2023-02-13T08:19:57;100671.13;;;0.24;100.00
54407;BME280;40313;50.308;30.374;2023-02-13T08:22:24;100669.47;;;0.39;100.00
54407;BME280;40313;50.308;30.374;2023-02-13T08:24:52;100666.91;;;0.43;100.00
54407;BME280;40313;50.308;30.374;2023-02-13T08:27:18;100660.94;;;0.46;100.00
54407;BME280;40313;50.308;30.374;2023-02-13T08:29:45;100666.06;;;0.50;100.00
54407;BME280;40313;50.308;30.374;2023-02-13T08:32:11;100672.91;;;0.45;100.00
54407;BME280;40313;50.308;30.374;2023-02-13T08:34:38;100669.44;;;0.32;100.00
54407;BME280;40313;50.308;30.374;2023-02-13T08:37:04;100666.84;;;0.15;100.00
54407;BME280;40313;50.308;30.374;2023-02-13T08:39:31;100665.09;;;0.10;100.00
54407;BME280;40313;50.308;30.374;2023-02-13T08:41:58;100657.41;;;0.01;100.00
54407;BME280;40313;50.308;30.374;2023-02-13T08:44:25;100648.84;;;0.05;100.00
54407;BME280;40313;50.308;30.374;2023-02-13T08:46:51;100657.41;;;0.05;100.00
54407;BME280;40313;50.308;30.374;2023-02-13T08:49:17;100655.72;;;0.23;100.00
54407;BME280;40313;50.308;30.374;2023-02-13T08:51:44;100660.88;;;0.20;100.00
54407;BME280;40313;50.308;30.374;2023-02-13T08:54:10;100647.16;;;0.10;100.00
54407;BME280;40313;50.308;30.374;2023-02-13T08:56:37;100645.41;;;0.01;100.00
54407;BME280;40313;50.308;30.374;2023-02-13T08:59:05;100646.28;;;0.02;100.00
54407;BME280;40313;50.308;30.374;2023-02-13T09:01:31;100643.72;;;0.00;100.00
54407;BME280;40313;50.308;30.374;2023-02-13T09:03:57;100642.84;;;0.04;100.00
54407;BME280;40313;50.308;30.374;2023-02-13T09:06:24;100635.16;;;0.06;100.00
54407;BME280;40313;50.308;30.374;2023-02-13T09:08:51;100647.97;;;0.04;100.00
54407;BME280;40313;50.308;30.374;2023-02-13T09:11:18;100637.72;;;-0.05;100.00
54407;BME280;40313;50.308;30.374;2023-02-13T09:13:47;100619.72;;;-0.14;100.00
54407;BME280;40313;50.308;30.374;2023-02-13T09:16:15;100622.31;;;-0.11;100.00
54407;BME280;40313;50.308;30.374;2023-02-13T09:18:41;100620.59;;;-0.09;100.00
54407;BME280;40313;50.308;30.374;2023-02-13T09:21:09;100607.75;;;-0.14;100.00
54407;BME280;40313;50.308;30.374;2023-02-13T09:23:38;100614.63;;;0.01;100.00
54407;BME280;40313;50.308;30.374;2023-02-13T09:26:06;100606.94;;;0.01;100.00
54407;BME280;40313;50.308;30.374;2023-02-13T09:28:32;100606.97;;;0.13;100.00
54407;BME280;40313;50.308;30.374;2023-02-13T09:30:59;100600.16;;;0.22;100.00
54407;BME280;40313;50.308;30.374;2023-02-13T09:33:30;100597.59;;;0.29;100.00
54407;BME280;40313;50.308;30.374;2023-02-13T09:35:57;100601.88;;;0.44;100.00
54407;BME280;40313;50.308;30.374;2023-02-13T09:38:23;100610.44;;;0.56;100.00
54407;BME280;40313;50.308;30.374;2023-02-13T09:40:53;100596.75;;;0.66;100.00
54407;BME280;40313;50.308;30.374;2023-02-13T09:43:21;100589.91;;;0.82;100.00
54407;BME280;40313;50.308;30.374;2023-02-13T09:45:54;100588.16;;;0.96;100.00
54407;BME280;40313;50.308;30.374;2023-02-13T09:48:27;100588.13;;;1.04;100.00
54407;BME280;40313;50.308;30.374;2023-02-13T09:50:56;100591.56;;;1.12;100.00
54407;BME280;40313;50.308;30.374;2023-02-13T09:53:23;100582.13;;;1.16;100.00
54407;BME280;40313;50.308;30.374;2023-02-13T09:55:57;100590.69;;;1.15;100.00
54407;BME280;40313;50.308;30.374;2023-02-13T09:58:38;100578.69;;;1.17;100.00
54407;BME280;40313;50.308;30.374;2023-02-13T10:01:16;100572.69;;;1.23;100.00
54407;BME280;40313;50.308;30.374;2023-02-13T10:03:45;100570.13;;;1.15;100.00
54407;BME280;40313;50.308;30.374;2023-02-13T10:06:22;100568.41;;;1.20;100.00
54407;BME280;40313;50.308;30.374;2023-02-13T10:09:00;100566.69;;;1.13;100.00
54407;BME280;40313;50.308;30.374;2023-02-13T10:11:47;100559.00;;;1.20;100.00
54407;BME280;40313;50.308;30.374;2023-02-13T10:14:17;100560.69;;;1.20;100.00
54407;BME280;40313;50.308;30.374;2023-02-13T10:16:48;100558.16;;;1.08;100.00
54407;BME280;40313;50.308;30.374;2023-02-13T10:19:19;100552.16;;;1.15;100.00
54407;BME280;40313;50.308;30.374;2023-02-13T10:21:54;100553.84;;;1.22;100.00
54407;BME280;40313;50.308;30.374;2023-02-13T10:24:30;100543.53;;;1.30;100.00
54407;BME280;40313;50.308;30.374;2023-02-13T10:26:58;100544.31;;;1.43;100.00
54407;BME280;40313;50.308;30.374;2023-02-13T10:29:35;100544.31;;;1.49;100.00
54407;BME280;40313;50.308;30.374;2023-02-13T10:32:25;100537.41;;;1.55;100.00
54407;BME280;40313;50.308;30.374;2023-02-13T10:34:57;100536.50;;;1.63;100.00
54407;BME280;40313;50.308;30.374;2023-02-13T10:37:27;100527.91;;;1.70;100.00
54407;BME280;40313;50.308;30.374;2023-02-13T10:39:54;100524.47;;;1.71;100.00
54407;BME280;40313;50.308;30.374;2023-02-13T10:42:22;100514.13;;;1.77;100.00
54407;BME280;40313;50.308;30.374;2023-02-13T10:45:02;100507.28;;;1.79;100.00
54407;BME280;40313;50.308;30.374;2023-02-13T10:47:40;100507.25;;;1.82;100.00
54407;BME280;40313;50.308;30.374;2023-02-13T10:50:19;100498.69;;;1.83;100.00
54407;BME280;40313;50.308;30.374;2023-02-13T10:52:56;100507.22;;;1.92;100.00
54407;BME280;40313;50.308;30.374;2023-02-13T10:58:21;100488.25;;;2.05;100.00
54407;BME280;40313;50.308;30.374;2023-02-13T11:00:54;100489.91;;;2.11;100.00
54407;BME280;40313;50.308;30.374;2023-02-13T11:03:24;100493.34;;;2.08;100.00
54407;BME280;40313;50.308;30.374;2023-02-13T11:05:53;100500.25;;;2.03;100.00
54407;BME280;40313;50.308;30.374;2023-02-13T11:08:23;100491.63;;;2.08;100.00
54407;BME280;40313;50.308;30.374;2023-02-13T11:10:50;100494.28;;;1.99;100.00
54407;BME280;40313;50.308;30.374;2023-02-13T11:13:17;100491.53;;;2.22;100.00
54407;BME280;40313;50.308;30.374;2023-02-13T11:15:56;100501.75;;;2.29;100.00
54407;BME280;40313;50.308;30.374;2023-02-13T11:18:24;100488.81;;;2.39;100.00
54407;BME280;40313;50.308;30.374;2023-02-13T11:20:58;100491.47;;;2.32;100.00
54407;BME280;40313;50.308;30.374;2023-02-13T11:23:33;100486.31;;;2.32;100.00
54407;BME280;40313;50.308;30.374;2023-02-13T11:26:03;100497.41;;;2.41;100.00
54407;BME280;40313;50.308;30.374;2023-02-13T11:28:36;100493.97;;;2.38;100.00
54407;BME280;40313;50.308;30.374;2023-02-13T11:31:12;100491.53;;;2.22;100.00
54407;BME280;40313;50.308;30.374;2023-02-13T11:33:39;100485.53;;;2.22;100.00
54407;BME280;40313;50.308;30.374;2023-02-13T11:36:07;100480.34;;;2.25;100.00
54407;BME280;40313;50.308;30.374;2023-02-13T11:38:36;100493.28;;;2.20;100.00
54407;BME280;40313;50.308;30.374;2023-02-13T11:41:06;100485.50;;;2.27;100.00
54407;BME280;40313;50.308;30.374;2023-02-13T11:43:35;100498.41;;;2.20;100.00
54407;BME280;40313;50.308;30.374;2023-02-13T11:46:04;100497.69;;;2.00;100.00
54407;BME280;40313;50.308;30.374;2023-02-13T11:48:32;100492.53;;;2.06;100.00
54407;BME280;40313;50.308;30.374;2023-02-13T11:50:59;100496.00;;;2.00;100.00
54407;BME280;40313;50.308;30.374;2023-02-13T11:53:29;100482.31;;;1.95;100.00
54407;BME280;40313;50.308;30.374;2023-02-13T11:56:04;100487.53;;;1.83;100.00
54407;BME280;40313;50.308;30.374;2023-02-13T11:58:32;100479.78;;;1.87;100.00
54407;BME280;40313;50.308;30.374;2023-02-13T12:01:24;100474.69;;;1.84;100.00
54407;BME280;40313;50.308;30.374;2023-02-13T12:04:01;100473.72;;;1.98;100.00
54407;BME280;40313;50.308;30.374;2023-02-13T12:06:28;100466.72;;;2.12;100.00
54407;BME280;40313;50.308;30.374;2023-02-13T12:08:56;100460.69;;;2.18;100.00
54407;BME280;40313;50.308;30.374;2023-02-13T12:11:29;100454.66;;;2.20;100.00
54407;BME280;40313;50.308;30.374;2023-02-13T12:14:00;100466.69;;;2.18;100.00
54407;BME280;40313;50.308;30.374;2023-02-13T12:16:31;100458.19;;;2.07;100.00
54407;BME280;40313;50.308;30.374;2023-02-13T12:19:04;100460.78;;;2.04;100.00
54407;BME280;40313;50.308;30.374;2023-02-13T12:21:49;100445.47;;;1.87;100.00
54407;BME280;40313;50.308;30.374;2023-02-13T12:24:29;100449.06;;;1.67;100.00
54407;BME280;40313;50.308;30.374;2023-02-13T12:27:07;100452.53;;;1.62;100.00
54407;BME280;40313;50.308;30.374;2023-02-13T12:29:45;100452.50;;;1.65;100.00
54407;BME280;40313;50.308;30.374;2023-02-13T12:32:17;100443.97;;;1.58;100.00
54407;BME280;40313;50.308;30.374;2023-02-13T12:34:50;100450.81;;;1.61;100.00
54407;BME280;40313;50.308;30.374;2023-02-13T12:37:28;100439.69;;;1.57;100.00
54407;BME280;40313;50.308;30.374;2023-02-13T12:40:02;100447.41;;;1.57;100.00
54407;BME280;40313;50.308;30.374;2023-02-13T12:42:43;100450.84;;;1.56;100.00
54407;BME280;40313;50.308;30.374;2023-02-13T12:45:19;100460.25;;;1.55;100.00
54407;BME280;40313;50.308;30.374;2023-02-13T12:47:56;100444.84;;;1.55;100.00
54407;BME280;40313;50.308;30.374;2023-02-13T12:50:28;100438.84;;;1.57;100.00
54407;BME280;40313;50.308;30.374;2023-02-13T12:53:04;100437.97;;;1.61;100.00
54407;BME280;40313;50.308;30.374;2023-02-13T12:58:22;100420.78;;;1.61;100.00
54407;BME280;40313;50.308;30.374;2023-02-13T13:00:52;100431.97;;;1.62;100.00